createdAt,value
2019-05-16T00:01:48.845Z,66.90
2019-05-16T00:04:18.374Z,67.00
2019-05-16T00:06:48.156Z,67.10
2019-05-16T00:09:18.323Z,67.50
2019-05-16T00:11:48.795Z,68.00
2019-05-16T00:14:18.886Z,68.00
2019-05-16T00:16:48.501Z,68.20
2019-05-16T00:19:18.227Z,68.30
2019-05-16T00:21:48.817Z,68.50
2019-05-16T00:24:18.765Z,68.50
2019-05-16T00:26:48.193Z,68.70
2019-05-16T00:29:18.398Z,68.70
2019-05-16T00:31:48.695Z,68.80
2019-05-16T00:34:18.847Z,69.10
2019-05-16T00:36:48.861Z,69.40
2019-05-16T00:39:18.828Z,69.60
2019-05-16T00:41:48.310Z,69.80
2019-05-16T00:44:18.953Z,70.00
2019-05-16T00:46:48.718Z,70.10
2019-05-16T00:49:18.691Z,70.00
2019-05-16T00:51:48.258Z,70.30
2019-05-16T00:54:18.596Z,70.30
2019-05-16T00:56:48.767Z,70.40
2019-05-16T00:59:19.504Z,70.70
2019-05-16T01:01:49.960Z,71.00
2019-05-16T01:04:19.841Z,71.20
2019-05-16T01:06:49.355Z,71.30
2019-05-16T01:09:18.967Z,71.30
2019-05-16T01:11:48.729Z,71.70
2019-05-16T01:14:18.389Z,72.00
2019-05-16T01:16:48.815Z,72.30
2019-05-16T01:19:18.747Z,72.60
2019-05-16T01:21:48.492Z,72.80
2019-05-16T01:24:18.811Z,73.10
2019-05-16T01:26:48.534Z,73.30
2019-05-16T01:29:18.809Z,73.50
2019-05-16T01:31:48.499Z,73.90
2019-05-16T01:34:18.214Z,74.00
2019-05-16T01:36:48.658Z,74.20
2019-05-16T01:39:18.419Z,74.50
2019-05-16T01:41:48.164Z,74.70
2019-05-16T01:44:18.331Z,75.10
2019-05-16T01:46:48.210Z,75.50
2019-05-16T01:49:18.735Z,75.70
2019-05-16T01:51:48.595Z,76.10
2019-05-16T01:54:18.142Z,76.20
2019-05-16T01:56:48.085Z,76.30
2019-05-16T01:59:18.191Z,76.50
2019-05-16T02:01:48.375Z,76.60
2019-05-16T02:04:18.473Z,77.00
2019-05-16T02:06:53.741Z,77.00
2019-05-16T02:09:19.339Z,77.40
2019-05-16T02:11:48.799Z,77.50
2019-05-16T02:14:18.287Z,77.60
2019-05-16T02:16:47.821Z,77.80
2019-05-16T02:19:18.840Z,77.90
2019-05-16T02:21:50.662Z,78.10
2019-05-16T02:24:19.622Z,78.20
2019-05-16T02:26:52.314Z,78.40
2019-05-16T02:29:20.645Z,78.60
2019-05-16T02:31:51.361Z,78.60
2019-05-16T02:34:21.878Z,78.60
2019-05-16T02:37:10.334Z,78.60
2019-05-16T02:39:22.973Z,78.60
2019-05-16T02:41:52.468Z,78.60
2019-05-16T02:44:24.594Z,78.70
2019-05-16T02:46:53.165Z,78.90
2019-05-16T02:49:22.666Z,78.70
2019-05-16T02:51:52.137Z,79.00
2019-05-16T02:54:22.026Z,78.90
2019-05-16T02:56:51.575Z,79.10
2019-05-16T02:59:21.119Z,79.10
2019-05-16T03:01:52.168Z,79.10
2019-05-16T03:04:22.038Z,79.40
2019-05-16T03:06:52.600Z,79.60
2019-05-16T03:09:22.754Z,79.00
2019-05-16T03:11:53.059Z,79.80
2019-05-16T03:14:23.504Z,79.80
2019-05-16T03:16:56.450Z,79.80
2019-05-16T03:19:31.100Z,79.70
2019-05-16T03:22:04.269Z,79.70
2019-05-16T03:24:34.247Z,79.70
2019-05-16T03:27:03.962Z,79.60
2019-05-16T03:29:33.444Z,79.70
2019-05-16T03:32:03.580Z,79.70
2019-05-16T03:34:34.442Z,79.60
2019-05-16T03:37:04.985Z,79.30
2019-05-16T03:39:34.862Z,79.20
2019-05-16T03:42:04.188Z,79.10
2019-05-16T03:44:33.681Z,79.10
2019-05-16T03:47:03.749Z,79.20
2019-05-16T03:49:33.288Z,79.10
2019-05-16T03:52:03.036Z,79.00
2019-05-16T03:54:32.485Z,79.10
2019-05-16T03:57:02.033Z,79.10
2019-05-16T03:59:31.684Z,78.90
2019-05-16T04:02:01.635Z,78.90
2019-05-16T04:04:31.342Z,78.60
2019-05-16T04:07:01.572Z,78.20
2019-05-16T04:09:31.623Z,78.10
2019-05-16T04:12:02.068Z,77.80
2019-05-16T04:14:31.672Z,77.70
2019-05-16T04:17:01.599Z,77.70
2019-05-16T04:19:31.577Z,77.40
2019-05-16T04:22:01.507Z,77.20
2019-05-16T04:24:31.787Z,77.10
2019-05-16T04:27:01.353Z,76.90
2019-05-16T04:29:31.604Z,76.60
2019-05-16T04:32:01.871Z,76.70
2019-05-16T04:34:31.443Z,76.60
2019-05-16T04:37:01.377Z,76.40
2019-05-16T04:39:31.928Z,76.30
2019-05-16T04:42:01.759Z,76.10
2019-05-16T04:44:31.339Z,76.20
2019-05-16T04:47:01.742Z,76.20
2019-05-16T04:49:32.091Z,76.00
2019-05-16T04:52:01.825Z,76.10
2019-05-16T04:54:31.301Z,75.90
2019-05-16T04:57:01.673Z,75.80
2019-05-16T04:59:31.466Z,75.50
2019-05-16T05:02:02.018Z,75.40
2019-05-16T05:04:31.933Z,75.30
2019-05-16T05:07:01.405Z,75.40
2019-05-16T05:09:31.821Z,75.20
2019-05-16T05:12:04.670Z,75.10
2019-05-16T05:14:32.638Z,74.80
2019-05-16T05:17:05.218Z,74.60
2019-05-16T05:19:33.276Z,75.20
2019-05-16T05:22:03.511Z,74.30
2019-05-16T05:24:32.973Z,74.10
2019-05-16T05:27:02.536Z,74.30
2019-05-16T05:29:32.018Z,73.60
2019-05-16T05:32:04.285Z,72.60
2019-05-16T05:34:32.674Z,72.00
2019-05-16T05:37:02.230Z,71.30
2019-05-16T05:39:31.837Z,70.90
2019-05-16T05:42:01.352Z,70.20
2019-05-16T05:44:30.851Z,69.70
2019-05-16T05:47:01.003Z,69.30
2019-05-16T05:49:31.378Z,69.00
2019-05-16T05:52:00.971Z,68.90
2019-05-16T05:54:30.964Z,68.80
2019-05-16T05:57:00.758Z,68.80
2019-05-16T05:59:30.737Z,69.10
2019-05-16T06:02:01.059Z,69.00
2019-05-16T06:04:30.660Z,69.20
2019-05-16T06:07:01.201Z,69.00
2019-05-16T06:09:33.115Z,68.90
2019-05-16T06:12:03.751Z,69.10
2019-05-16T06:14:33.241Z,69.20
2019-05-16T06:17:06.165Z,68.60
2019-05-16T06:19:35.694Z,68.10
2019-05-16T06:22:05.242Z,68.90
2019-05-16T06:24:34.722Z,67.70
2019-05-16T06:27:04.272Z,67.30
2019-05-16T06:29:33.708Z,66.70
2019-05-16T06:32:03.199Z,66.40
2019-05-16T06:34:32.641Z,66.40
2019-05-16T06:37:02.208Z,66.70
2019-05-16T06:39:41.284Z,66.00
2019-05-16T06:42:02.960Z,65.90
2019-05-16T06:44:32.446Z,66.10
2019-05-16T06:47:16.021Z,66.10
2019-05-16T06:49:33.094Z,65.70
2019-05-16T06:52:02.574Z,65.20
2019-05-16T06:54:32.093Z,65.40
2019-05-16T06:57:01.542Z,65.40
2019-05-16T06:59:31.160Z,64.40
2019-05-16T07:02:00.645Z,63.50
2019-05-16T07:04:30.577Z,62.40
2019-05-16T07:07:05.611Z,61.80
2019-05-16T07:09:35.097Z,62.70
2019-05-16T07:12:04.902Z,61.60
2019-05-16T07:14:34.434Z,61.20
2019-05-16T07:17:03.955Z,61.00
2019-05-16T07:19:35.483Z,60.80
2019-05-16T07:22:04.842Z,60.80
2019-05-16T07:24:34.349Z,61.30
2019-05-16T07:27:03.888Z,61.40
2019-05-16T07:29:33.356Z,61.70
2019-05-16T07:32:02.834Z,62.00
2019-05-16T07:34:32.415Z,62.00
2019-05-16T07:37:01.939Z,61.50
2019-05-16T07:39:31.431Z,61.60
2019-05-16T07:42:00.898Z,61.40
2019-05-16T07:44:31.160Z,61.30
2019-05-16T07:47:01.127Z,61.50
2019-05-16T07:49:30.882Z,60.60
2019-05-16T07:52:00.715Z,60.90
2019-05-16T07:54:34.449Z,60.90
2019-05-16T07:57:18.552Z,59.80
2019-05-16T07:59:32.901Z,59.10
2019-05-16T08:02:02.404Z,59.30
2019-05-16T08:04:31.912Z,58.20
2019-05-16T08:07:01.609Z,58.50
2019-05-16T08:09:31.144Z,58.90
2019-05-16T08:14:35.058Z,58.60
2019-05-16T08:17:03.285Z,58.40
2019-05-16T08:19:32.760Z,58.60
2019-05-16T08:22:02.266Z,58.80
2019-05-16T08:24:35.555Z,59.20
2019-05-16T08:27:02.953Z,59.30
2019-05-16T08:29:32.428Z,59.20
2019-05-16T08:34:33.773Z,58.90
2019-05-16T08:37:03.275Z,59.30
2019-05-16T08:39:32.778Z,59.50
2019-05-16T08:42:08.140Z,59.50
2019-05-16T08:44:33.518Z,59.60
2019-05-16T08:49:34.389Z,60.00
2019-05-16T08:50:05.861Z,58.90
2019-05-16T08:50:10.160Z,59.00
2019-05-16T08:52:04.066Z,60.20
2019-05-16T08:54:33.636Z,60.30
2019-05-16T08:57:25.504Z,60.10
2019-05-16T08:59:34.319Z,60.20
2019-05-16T09:02:04.045Z,60.60
2019-05-16T09:04:36.038Z,60.30
2019-05-16T09:07:05.619Z,60.20
2019-05-16T09:09:44.133Z,60.10
2019-05-16T09:12:07.843Z,59.90
2019-05-16T09:14:39.096Z,59.90
2019-05-16T09:17:09.202Z,59.20
2019-05-16T09:18:32.828Z,59.80
2019-05-16T09:19:39.325Z,58.70
2019-05-16T09:22:08.809Z,58.00
2019-05-16T09:24:38.399Z,58.00
2019-05-16T09:27:12.020Z,57.20
2019-05-16T09:29:39.332Z,57.80
2019-05-16T09:32:17.108Z,57.10
2019-05-16T09:34:40.172Z,56.80
2019-05-16T09:37:09.699Z,56.10
2019-05-16T09:39:39.249Z,55.80
2019-05-16T09:42:08.819Z,55.80
2019-05-16T09:44:38.671Z,55.80
2019-05-16T09:47:08.254Z,55.70
2019-05-16T09:49:37.733Z,55.00
2019-05-16T09:52:07.618Z,54.20
2019-05-16T09:54:37.860Z,54.10
2019-05-16T09:57:07.653Z,54.80
2019-05-16T09:59:37.216Z,55.20
2019-05-16T10:02:07.629Z,56.00
2019-05-16T10:04:37.338Z,56.00
2019-05-16T10:07:06.893Z,56.30
2019-05-16T10:09:44.513Z,56.50
2019-05-16T10:12:15.036Z,56.70
2019-05-16T10:14:38.905Z,57.20
2019-05-16T10:17:08.480Z,57.40
2019-05-16T10:19:37.935Z,57.50
2019-05-16T10:22:07.567Z,57.80
2019-05-16T10:24:37.574Z,58.00
2019-05-16T10:27:07.517Z,58.20
2019-05-16T10:29:37.764Z,58.00
2019-05-16T10:32:07.952Z,57.90
2019-05-16T10:34:37.444Z,57.70
2019-05-16T10:37:06.945Z,57.30
2019-05-16T10:39:37.388Z,56.90
2019-05-16T10:42:07.020Z,56.70
2019-05-16T10:44:38.542Z,56.80
2019-05-16T10:47:07.815Z,56.50
2019-05-16T10:49:40.919Z,57.00
2019-05-16T10:52:08.460Z,57.10
2019-05-16T10:54:52.785Z,57.10
2019-05-16T10:57:09.370Z,56.90
2019-05-16T11:00:06.708Z,56.60
2019-05-16T11:02:10.261Z,56.60
2019-05-16T11:04:53.279Z,56.50
2019-05-16T11:07:11.060Z,56.40
2019-05-16T11:09:53.508Z,56.30
2019-05-16T11:12:11.849Z,56.30
2019-05-16T11:14:41.325Z,56.80
2019-05-16T11:17:13.257Z,57.00
2019-05-16T11:19:42.027Z,56.50
2019-05-16T11:22:11.549Z,56.20
2019-05-16T11:24:41.087Z,56.40
2019-05-16T11:27:10.761Z,57.30
2019-05-16T11:29:40.314Z,57.00
2019-05-16T11:32:09.888Z,56.50
2019-05-16T11:34:39.384Z,56.10
2019-05-16T11:37:08.876Z,55.60
2019-05-16T11:39:38.355Z,56.30
2019-05-16T11:42:08.332Z,56.20
2019-05-16T11:44:38.326Z,56.10
2019-05-16T11:47:08.413Z,55.40
2019-05-16T11:49:38.162Z,55.80
2019-05-16T11:52:07.726Z,55.00
2019-05-16T11:54:38.724Z,55.30
2019-05-16T11:57:08.358Z,55.30
2019-05-16T11:59:37.848Z,55.50
2019-05-16T12:02:07.330Z,55.60
2019-05-16T12:04:37.558Z,55.80
2019-05-16T12:07:07.757Z,56.40
2019-05-16T12:09:47.215Z,56.50
2019-05-16T12:12:08.873Z,56.40
2019-05-16T12:14:38.432Z,56.60
2019-05-16T12:17:07.946Z,56.30
2019-05-16T12:19:43.587Z,56.10
2019-05-16T12:22:08.703Z,56.20
2019-05-16T12:24:41.356Z,55.90
2019-05-16T12:27:09.341Z,55.40
2019-05-16T12:29:38.822Z,55.00
2019-05-16T12:32:08.660Z,55.10
2019-05-16T12:34:38.340Z,55.20
2019-05-16T12:37:07.817Z,55.20
2019-05-16T12:39:38.043Z,55.10
2019-05-16T12:42:08.595Z,54.50
2019-05-16T12:44:38.359Z,54.70
2019-05-16T12:47:07.984Z,54.00
2019-05-16T12:49:37.484Z,53.60
2019-05-16T12:52:07.026Z,53.50
2019-05-16T12:54:37.128Z,53.50
2019-05-16T12:57:07.022Z,54.10
2019-05-16T12:59:37.043Z,54.00
2019-05-16T13:02:07.497Z,54.30
2019-05-16T13:04:37.737Z,54.20
2019-05-16T13:07:09.385Z,54.70
2019-05-16T13:09:38.617Z,54.90
2019-05-16T13:12:08.122Z,54.80
2019-05-16T13:14:40.295Z,55.10
2019-05-16T13:17:09.030Z,55.00
2019-05-16T13:19:44.314Z,55.00
2019-05-16T13:22:09.617Z,55.10
2019-05-16T13:24:39.158Z,55.10
2019-05-16T13:27:08.755Z,55.20
2019-05-16T13:29:38.388Z,55.60
2019-05-16T13:32:07.976Z,55.80
2019-05-16T13:34:38.020Z,56.10
2019-05-16T13:37:07.978Z,56.40
2019-05-16T13:39:37.498Z,56.50
2019-05-16T13:42:07.941Z,56.90
2019-05-16T13:44:37.898Z,57.10
2019-05-16T13:47:07.835Z,57.00
2019-05-16T13:49:38.597Z,57.00
2019-05-16T13:52:08.409Z,56.80
2019-05-16T13:54:37.931Z,56.80
2019-05-16T13:57:07.532Z,56.70
2019-05-16T13:59:37.577Z,57.00
2019-05-16T14:02:08.084Z,57.40
2019-05-16T14:04:37.723Z,57.50
2019-05-16T14:07:07.773Z,57.00
2019-05-16T14:09:43.332Z,57.10
2019-05-16T14:12:12.819Z,57.10
2019-05-16T14:14:42.757Z,57.10
2019-05-16T14:17:14.541Z,57.00
2019-05-16T14:19:43.539Z,57.20
2019-05-16T14:22:13.033Z,57.50
2019-05-16T14:24:42.525Z,57.70
2019-05-16T14:27:12.055Z,58.00
2019-05-16T14:29:41.531Z,57.90
2019-05-16T14:32:11.210Z,58.20
2019-05-16T14:34:40.756Z,58.10
2019-05-16T14:37:10.458Z,57.90
2019-05-16T14:39:40.000Z,58.00
2019-05-16T14:42:09.525Z,58.20
2019-05-16T14:44:59.813Z,58.20
2019-05-16T14:47:10.767Z,58.30
2019-05-16T14:49:40.205Z,58.40
2019-05-16T14:52:09.695Z,58.30
2019-05-16T14:54:39.275Z,58.30
2019-05-16T14:57:08.812Z,58.60
2019-05-16T14:59:38.299Z,58.90
2019-05-16T15:02:07.794Z,59.10
2019-05-16T15:04:37.757Z,58.90
2019-05-16T15:07:07.289Z,59.00
2019-05-16T15:09:38.029Z,59.30
2019-05-16T15:12:07.976Z,59.60
2019-05-16T15:14:37.763Z,59.60
2019-05-16T15:17:07.278Z,59.40
2019-05-16T15:19:39.465Z,59.10
2019-05-16T15:22:08.953Z,58.80
2019-05-16T15:24:38.452Z,59.00
2019-05-16T15:27:08.525Z,59.50
2019-05-16T15:29:38.124Z,59.50
2019-05-16T15:32:07.530Z,59.30
2019-05-16T15:34:38.014Z,59.00
2019-05-16T15:37:08.116Z,58.90
2019-05-16T15:39:37.872Z,58.50
2019-05-16T15:42:08.150Z,58.10
2019-05-16T15:44:37.942Z,58.10
2019-05-16T15:47:08.333Z,58.10
2019-05-16T15:49:38.037Z,57.60
2019-05-16T15:52:07.732Z,57.70
2019-05-16T15:54:38.827Z,57.00
2019-05-16T15:57:08.315Z,56.30
2019-05-16T15:59:37.851Z,56.00
2019-05-16T16:02:07.525Z,55.60
2019-05-16T16:04:37.480Z,55.30
2019-05-16T16:07:07.844Z,55.50
2019-05-16T16:09:38.063Z,55.50
2019-05-16T16:12:10.594Z,55.50
2019-05-16T16:14:38.949Z,55.50
2019-05-16T16:17:08.687Z,55.80
2019-05-16T16:19:38.151Z,56.20
2019-05-16T16:22:07.944Z,56.40
2019-05-16T16:24:37.642Z,56.50
2019-05-16T16:27:07.486Z,56.80
2019-05-16T16:29:37.107Z,56.90
2019-05-16T16:32:09.550Z,57.00
2019-05-16T16:34:38.980Z,57.20
2019-05-16T16:37:08.732Z,57.40
2019-05-16T16:39:38.245Z,57.50
2019-05-16T16:42:07.892Z,57.80
2019-05-16T16:44:38.897Z,58.00
2019-05-16T16:47:08.417Z,58.30
2019-05-16T16:49:39.603Z,58.40
2019-05-16T16:52:09.089Z,58.40
2019-05-16T16:54:38.615Z,59.00
2019-05-16T16:57:08.193Z,58.30
2019-05-16T16:59:37.744Z,58.60
2019-05-16T17:02:07.220Z,58.40
2019-05-16T17:04:38.634Z,58.20
2019-05-16T17:07:08.100Z,58.40
2019-05-16T17:09:37.606Z,58.40
2019-05-16T17:12:07.202Z,58.60
2019-05-16T17:14:37.149Z,58.70
2019-05-16T17:17:07.182Z,58.90
2019-05-16T17:19:36.855Z,59.00
2019-05-16T17:22:17.248Z,59.00
2019-05-16T17:24:37.919Z,58.90
2019-05-16T17:27:07.899Z,58.80
2019-05-16T17:29:37.466Z,58.80
2019-05-16T17:32:10.245Z,59.00
2019-05-16T17:34:38.222Z,59.00
2019-05-16T17:37:09.670Z,59.10
2019-05-16T17:39:39.327Z,59.40
2019-05-16T17:42:08.758Z,59.40
2019-05-16T17:44:38.220Z,59.50
2019-05-16T17:47:07.716Z,59.80
2019-05-16T17:49:37.312Z,59.70
2019-05-16T17:52:07.134Z,59.90
2019-05-16T17:54:37.292Z,59.90
2019-05-16T17:57:07.575Z,60.20
2019-05-16T17:59:38.002Z,60.40
2019-05-16T18:02:07.692Z,60.70
2019-05-16T18:04:40.581Z,60.80
2019-05-16T18:07:08.577Z,60.90
2019-05-16T18:09:38.124Z,61.10
2019-05-16T18:12:10.135Z,61.00
2019-05-16T18:14:39.664Z,61.10
2019-05-16T18:17:09.163Z,61.40
2019-05-16T18:19:38.665Z,61.60
2019-05-16T18:22:08.173Z,61.60
2019-05-16T18:24:37.740Z,61.60
2019-05-16T18:27:07.324Z,61.60
2019-05-16T18:29:36.771Z,61.60
2019-05-16T18:32:07.006Z,61.70
2019-05-16T18:34:37.681Z,62.80
2019-05-16T18:37:07.389Z,62.10
2019-05-16T18:39:37.075Z,62.10
2019-05-16T18:42:06.787Z,61.90
2019-05-16T18:44:36.678Z,62.20
2019-05-16T18:47:10.434Z,62.50
2019-05-16T18:49:37.710Z,62.80
2019-05-16T18:52:07.176Z,63.40
2019-05-16T18:54:37.536Z,63.60
2019-05-16T18:57:07.321Z,64.00
2019-05-16T18:59:37.060Z,64.30
2019-05-16T19:02:10.022Z,64.60
2019-05-16T19:04:38.123Z,65.20
2019-05-16T19:07:08.003Z,65.20
2019-05-16T19:09:37.763Z,65.70
2019-05-16T19:12:07.323Z,65.90
2019-05-16T19:14:37.055Z,66.20
2019-05-16T19:17:20.652Z,67.20
2019-05-16T19:19:37.840Z,68.10
2019-05-16T19:22:07.360Z,68.90
2019-05-16T19:24:36.915Z,69.20
2019-05-16T19:27:06.813Z,69.60
2019-05-16T19:29:36.957Z,70.30
2019-05-16T19:32:06.883Z,70.80
2019-05-16T19:34:36.418Z,71.40
2019-05-16T19:37:07.044Z,72.00
2019-05-16T19:39:37.200Z,72.70
2019-05-16T19:42:06.884Z,73.10
2019-05-16T19:44:37.163Z,73.30
2019-05-16T19:47:07.188Z,74.60
2019-05-16T19:49:37.128Z,74.80
2019-05-16T19:52:07.372Z,75.80
2019-05-16T19:54:36.791Z,76.20
2019-05-16T19:57:07.506Z,77.30
2019-05-16T19:59:37.019Z,77.30
2019-05-16T20:02:07.698Z,77.70
2019-05-16T20:04:37.436Z,78.70
2019-05-16T20:07:07.574Z,78.90
2019-05-16T20:09:37.079Z,79.60
2019-05-16T20:12:07.680Z,80.90
2019-05-16T20:14:37.404Z,81.70
2019-05-16T20:17:07.496Z,82.00
2019-05-16T20:19:37.155Z,82.10
2019-05-16T20:22:07.735Z,83.30
2019-05-16T20:24:37.364Z,84.10
2019-05-16T20:27:08.081Z,84.20
2019-05-16T20:29:37.745Z,85.00
2019-05-16T20:32:08.247Z,85.00
2019-05-16T20:34:38.503Z,85.60
2019-05-16T20:37:09.325Z,85.90
2019-05-16T20:39:39.007Z,86.50
2019-05-16T20:42:08.539Z,87.60
2019-05-16T20:44:38.063Z,87.50
2019-05-16T20:47:07.703Z,88.00
2019-05-16T20:49:37.445Z,88.50
2019-05-16T20:52:07.294Z,88.80
2019-05-16T20:54:37.665Z,89.80
2019-05-16T20:57:07.311Z,90.20
2019-05-16T20:59:36.851Z,90.00
2019-05-16T21:02:06.973Z,90.00
2019-05-16T21:04:37.467Z,90.10
2019-05-16T21:07:11.099Z,90.20
2019-05-16T21:09:38.604Z,90.50
2019-05-16T21:12:08.386Z,90.60
2019-05-16T21:14:38.020Z,90.80
2019-05-16T21:17:07.590Z,90.90
2019-05-16T21:19:39.251Z,90.90
2019-05-16T21:22:08.468Z,91.20
2019-05-16T21:24:37.936Z,91.20
2019-05-16T21:27:07.415Z,91.50
2019-05-16T21:29:37.060Z,91.70
2019-05-16T21:32:07.465Z,91.90
2019-05-16T21:34:37.019Z,92.20
2019-05-16T21:37:14.366Z,92.20
2019-05-16T21:39:37.713Z,92.40
2019-05-16T21:42:07.718Z,92.60
2019-05-16T21:44:37.551Z,92.80
2019-05-16T21:47:07.273Z,93.00
2019-05-16T21:49:37.129Z,93.10
2019-05-16T21:52:06.723Z,93.20
2019-05-16T21:54:36.840Z,93.30
2019-05-16T21:57:06.406Z,93.40
2019-05-16T21:59:37.520Z,93.50
2019-05-16T22:02:07.513Z,93.60
2019-05-16T22:04:37.031Z,93.90
2019-05-16T22:07:07.301Z,94.00
2019-05-16T22:09:37.200Z,94.20
2019-05-16T22:12:06.935Z,94.20
2019-05-16T22:14:47.115Z,94.40
2019-05-16T22:17:16.976Z,94.40
2019-05-16T22:19:46.951Z,94.50
2019-05-16T22:22:16.677Z,94.60
2019-05-16T22:24:49.223Z,94.60
2019-05-16T22:27:17.558Z,94.70
2019-05-16T22:29:47.033Z,94.80
2019-05-16T22:32:16.561Z,94.80
2019-05-16T22:34:47.662Z,94.90
2019-05-16T22:37:17.405Z,95.00
2019-05-16T22:39:46.924Z,95.10
2019-05-16T22:42:17.635Z,95.10
2019-05-16T22:44:47.382Z,95.10
2019-05-16T22:47:17.308Z,95.10
2019-05-16T22:49:47.517Z,95.10
2019-05-16T22:52:17.406Z,95.30
2019-05-16T22:54:47.570Z,95.30
2019-05-16T22:57:17.713Z,95.30
2019-05-16T22:59:47.388Z,95.30
2019-05-16T23:02:17.034Z,95.40
2019-05-16T23:04:47.491Z,95.40
2019-05-16T23:07:17.338Z,95.50
2019-05-16T23:09:47.315Z,95.50
2019-05-16T23:12:17.358Z,95.60
2019-05-16T23:14:47.070Z,95.60
2019-05-16T23:17:17.255Z,95.60
2019-05-16T23:19:47.556Z,95.70
2019-05-16T23:22:17.172Z,95.80
2019-05-16T23:24:46.757Z,95.80
2019-05-16T23:27:16.278Z,95.80
2019-05-16T23:29:47.420Z,95.90
2019-05-16T23:32:17.008Z,95.90
2019-05-16T23:34:48.505Z,95.90
2019-05-16T23:37:17.927Z,96.10
2019-05-16T23:39:47.599Z,96.00
2019-05-16T23:42:17.035Z,96.10
2019-05-16T23:44:47.362Z,96.10
2019-05-16T23:47:17.030Z,96.20
2019-05-16T23:49:47.293Z,96.20
2019-05-16T23:52:16.979Z,96.30
2019-05-16T23:54:47.504Z,96.20
2019-05-16T23:57:17.298Z,96.30
2019-05-16T23:59:47.279Z,96.20
